createdAt,value
2019-02-11T00:00:36.463Z,4.27
2019-02-11T00:03:04.786Z,4.23
2019-02-11T00:05:33.033Z,4.16
2019-02-11T00:08:01.283Z,4.13
2019-02-11T00:10:29.550Z,4.12
2019-02-11T00:12:57.835Z,4.12
2019-02-11T00:15:26.097Z,4.08
2019-02-11T00:17:54.415Z,4.02
2019-02-11T00:20:22.670Z,4.03
2019-02-11T00:22:50.932Z,4.01
2019-02-11T00:25:19.449Z,4.01
2019-02-11T00:27:47.728Z,3.94
2019-02-11T00:30:15.987Z,3.94
2019-02-11T00:32:44.303Z,3.91
2019-02-11T00:35:12.538Z,3.85
2019-02-11T00:37:40.837Z,3.82
2019-02-11T00:40:09.094Z,3.76
2019-02-11T00:42:37.385Z,3.76
2019-02-11T00:45:07.277Z,3.77
2019-02-11T00:47:35.618Z,3.71
2019-02-11T00:50:05.427Z,3.65
2019-02-11T00:52:33.679Z,3.64
2019-02-11T00:55:01.979Z,3.58
2019-02-11T00:57:30.238Z,3.55
2019-02-11T00:59:58.486Z,3.51
2019-02-11T01:02:26.770Z,3.49
2019-02-11T01:04:55.032Z,3.37
2019-02-11T01:07:23.303Z,3.37
2019-02-11T01:09:51.631Z,3.33
2019-02-11T01:12:20.149Z,3.31
2019-02-11T01:14:48.398Z,3.30
2019-02-11T01:17:16.722Z,3.26
2019-02-11T01:19:44.989Z,3.22
2019-02-11T01:22:13.239Z,3.22
2019-02-11T01:24:41.526Z,3.21
2019-02-11T01:27:09.792Z,3.19
2019-02-11T01:29:38.121Z,3.17
2019-02-11T01:32:06.370Z,3.18
2019-02-11T01:34:34.630Z,3.18
2019-02-11T01:37:02.888Z,3.18
2019-02-11T01:39:31.241Z,3.13
2019-02-11T01:41:59.538Z,3.14
2019-02-11T01:44:27.790Z,3.13
2019-02-11T01:46:56.043Z,3.12
2019-02-11T01:49:24.353Z,3.05
2019-02-11T01:51:52.643Z,3.01
2019-02-11T01:54:20.939Z,2.95
2019-02-11T01:56:49.186Z,2.97
2019-02-11T01:59:17.439Z,3.00
2019-02-11T02:01:45.732Z,3.03
2019-02-11T02:04:14.046Z,3.00
2019-02-11T02:06:42.294Z,2.92
2019-02-11T02:09:10.952Z,2.83
2019-02-11T02:11:39.238Z,2.79
2019-02-11T02:14:07.497Z,2.75
2019-02-11T02:16:35.781Z,2.70
2019-02-11T02:19:04.036Z,2.70
2019-02-11T02:21:32.326Z,2.68
2019-02-11T02:24:00.584Z,2.68
2019-02-11T02:26:28.840Z,2.70
2019-02-11T02:28:57.153Z,2.69
2019-02-11T02:31:25.442Z,2.65
2019-02-11T02:33:53.696Z,2.64
2019-02-11T02:36:21.975Z,2.66
2019-02-11T02:38:50.278Z,2.67
2019-02-11T02:41:18.557Z,2.62
2019-02-11T02:43:55.225Z,2.64
2019-02-11T02:46:16.828Z,2.62
2019-02-11T02:48:45.079Z,2.60
2019-02-11T02:51:13.374Z,2.61
2019-02-11T02:53:41.631Z,2.65
2019-02-11T02:56:09.927Z,2.65
2019-02-11T02:58:38.177Z,2.66
2019-02-11T03:01:06.421Z,2.64
2019-02-11T03:03:34.694Z,2.61
2019-02-11T03:06:02.962Z,2.59
2019-02-11T03:08:31.242Z,2.62
2019-02-11T03:10:59.492Z,2.64
2019-02-11T03:13:27.743Z,2.61
2019-02-11T03:15:56.018Z,2.59
2019-02-11T03:18:24.266Z,2.62
2019-02-11T03:20:52.549Z,2.62
2019-02-11T03:23:20.826Z,2.57
2019-02-11T03:25:49.086Z,2.58
2019-02-11T03:28:17.536Z,2.60
2019-02-11T03:30:45.797Z,2.61
2019-02-11T03:33:14.073Z,2.62
2019-02-11T03:35:42.328Z,2.61
2019-02-11T03:38:10.591Z,2.62
2019-02-11T03:40:38.845Z,2.57
2019-02-11T03:43:07.125Z,2.50
2019-02-11T03:45:35.381Z,2.49
2019-02-11T03:48:03.647Z,2.49
2019-02-11T03:50:31.898Z,2.49
2019-02-11T03:53:00.177Z,2.48
2019-02-11T03:55:28.440Z,2.47
2019-02-11T03:57:56.714Z,2.49
2019-02-11T04:00:25.022Z,2.47
2019-02-11T04:02:53.277Z,2.44
2019-02-11T04:05:21.548Z,2.40
2019-02-11T04:07:49.819Z,2.40
2019-02-11T04:10:18.067Z,2.42
2019-02-11T04:12:46.349Z,2.44
2019-02-11T04:15:14.646Z,2.45
2019-02-11T04:17:42.891Z,2.43
2019-02-11T04:20:11.137Z,2.34
2019-02-11T04:22:39.431Z,2.29
2019-02-11T04:25:07.851Z,2.32
2019-02-11T04:27:36.144Z,2.34
2019-02-11T04:30:05.827Z,2.35
2019-02-11T04:32:34.079Z,2.37
2019-02-11T04:35:02.364Z,2.38
2019-02-11T04:37:30.705Z,2.37
2019-02-11T04:39:58.920Z,2.35
2019-02-11T04:42:27.187Z,2.37
2019-02-11T04:44:55.471Z,2.40
2019-02-11T04:47:23.725Z,2.39
2019-02-11T04:49:52.028Z,2.39
2019-02-11T04:52:20.279Z,2.36
2019-02-11T04:54:48.601Z,2.37
2019-02-11T04:57:16.874Z,2.34
2019-02-11T04:59:45.156Z,2.36
2019-02-11T05:02:13.427Z,2.37
2019-02-11T05:04:41.676Z,2.35
2019-02-11T05:07:10.002Z,2.33
2019-02-11T05:09:38.247Z,2.37
2019-02-11T05:12:06.501Z,2.36
2019-02-11T05:14:43.227Z,2.35
2019-02-11T05:17:04.746Z,2.30
2019-02-11T05:19:33.027Z,2.30
2019-02-11T05:22:01.278Z,2.34
2019-02-11T05:24:29.565Z,2.33
2019-02-11T05:26:57.836Z,2.34
2019-02-11T05:29:26.093Z,2.36
2019-02-11T05:31:54.458Z,2.36
2019-02-11T05:34:22.712Z,2.34
2019-02-11T05:36:50.972Z,2.32
2019-02-11T05:39:19.254Z,2.33
2019-02-11T05:41:47.502Z,2.30
2019-02-11T05:44:15.830Z,2.30
2019-02-11T05:46:44.086Z,2.28
2019-02-11T05:49:12.338Z,2.22
2019-02-11T05:51:40.604Z,2.22
2019-02-11T05:54:08.851Z,2.27
2019-02-11T05:56:37.119Z,2.29
2019-02-11T05:59:05.383Z,2.26
2019-02-11T06:01:33.927Z,2.25
2019-02-11T06:04:02.182Z,2.28
2019-02-11T06:06:30.463Z,2.28
2019-02-11T06:08:58.723Z,2.32
2019-02-11T06:11:27.015Z,2.29
2019-02-11T06:13:55.261Z,2.23
2019-02-11T06:16:23.546Z,2.27
2019-02-11T06:18:51.809Z,2.29
2019-02-11T06:21:20.101Z,2.28
2019-02-11T06:23:48.431Z,2.30
2019-02-11T06:26:16.716Z,2.22
2019-02-11T06:28:44.970Z,2.23
2019-02-11T06:31:13.246Z,2.28
2019-02-11T06:33:41.505Z,2.33
2019-02-11T06:36:12.502Z,2.38
2019-02-11T06:38:39.790Z,2.45
2019-02-11T06:41:08.027Z,2.48
2019-02-11T06:43:36.308Z,2.49
2019-02-11T06:46:04.584Z,2.53
2019-02-11T06:48:32.981Z,2.56
2019-02-11T06:51:01.268Z,2.57
2019-02-11T06:53:29.520Z,2.61
2019-02-11T06:55:57.802Z,2.68
2019-02-11T06:58:26.102Z,2.76
2019-02-11T07:00:54.358Z,2.81
2019-02-11T07:03:22.861Z,2.85
2019-02-11T07:05:51.177Z,2.85
2019-02-11T07:08:19.415Z,2.90
2019-02-11T07:10:55.261Z,2.94
2019-02-11T07:13:17.671Z,2.99
2019-02-11T07:15:45.931Z,3.01
2019-02-11T07:18:14.205Z,2.98
2019-02-11T07:20:42.467Z,3.00
2019-02-11T07:23:10.770Z,3.05
2019-02-11T07:25:39.025Z,3.09
2019-02-11T07:28:07.447Z,3.13
2019-02-11T07:30:35.782Z,3.18
2019-02-11T07:33:04.048Z,3.22
2019-02-11T07:35:32.346Z,3.27
2019-02-11T07:38:00.600Z,3.30
2019-02-11T07:40:29.146Z,3.31
2019-02-11T07:42:59.081Z,3.34
2019-02-11T07:45:37.820Z,3.37
2019-02-11T07:48:06.169Z,3.37
2019-02-11T07:50:34.422Z,3.39
2019-02-11T07:53:02.817Z,3.43
2019-02-11T07:55:31.075Z,3.40
2019-02-11T07:57:59.327Z,3.36
2019-02-11T08:00:27.642Z,3.31
2019-02-11T08:02:55.891Z,3.30
2019-02-11T08:05:24.180Z,3.32
2019-02-11T08:07:52.438Z,3.34
2019-02-11T08:10:20.772Z,3.39
2019-02-11T08:12:49.039Z,3.38
2019-02-11T08:15:17.293Z,3.39
2019-02-11T08:17:46.822Z,3.41
2019-02-11T08:20:15.224Z,3.36
2019-02-11T08:22:43.526Z,3.34
2019-02-11T08:25:11.779Z,3.30
2019-02-11T08:27:40.035Z,3.25
2019-02-11T08:30:10.463Z,3.27
2019-02-11T08:32:38.727Z,3.27
2019-02-11T08:35:07.855Z,3.30
2019-02-11T08:37:36.148Z,3.33
2019-02-11T08:40:07.093Z,3.31
2019-02-11T08:42:36.235Z,3.29
2019-02-11T08:45:06.659Z,3.34
2019-02-11T08:47:34.916Z,3.42
2019-02-11T08:50:04.054Z,3.45
2019-02-11T08:52:32.309Z,3.49
2019-02-11T08:55:00.610Z,3.50
2019-02-11T08:57:28.875Z,3.48
2019-02-11T08:59:57.137Z,3.52
2019-02-11T09:02:25.437Z,3.55
2019-02-11T09:04:53.691Z,3.60
2019-02-11T09:07:21.949Z,3.64
2019-02-11T09:09:50.311Z,3.66
2019-02-11T09:12:18.569Z,3.68
2019-02-11T09:14:46.870Z,3.65
2019-02-11T09:17:15.123Z,3.68
2019-02-11T09:19:43.413Z,3.65
2019-02-11T09:22:11.677Z,3.62
2019-02-11T09:24:39.996Z,3.63
2019-02-11T09:27:08.248Z,3.63
2019-02-11T09:29:36.508Z,3.66
2019-02-11T09:32:04.789Z,3.71
2019-02-11T09:34:33.053Z,3.79
2019-02-11T09:37:01.344Z,3.87
2019-02-11T09:39:29.596Z,3.92
2019-02-11T09:41:57.886Z,3.93
2019-02-11T09:44:29.643Z,3.97
2019-02-11T09:46:56.186Z,4.01
2019-02-11T09:49:24.475Z,4.07
2019-02-11T09:51:53.267Z,4.09
2019-02-11T09:54:21.556Z,4.17
2019-02-11T09:56:49.816Z,4.23
2019-02-11T09:59:18.079Z,4.29
2019-02-11T10:01:46.342Z,4.35
2019-02-11T10:04:14.670Z,4.39
2019-02-11T10:06:42.959Z,4.48
2019-02-11T10:09:11.242Z,4.63
2019-02-11T10:11:39.495Z,4.89
2019-02-11T10:14:07.769Z,5.15
2019-02-11T10:16:36.027Z,5.41
2019-02-11T10:19:04.304Z,5.67
2019-02-11T10:21:33.912Z,5.80
2019-02-11T10:24:02.289Z,6.00
2019-02-11T10:26:30.557Z,6.31
2019-02-11T10:28:58.881Z,6.43
2019-02-11T10:31:27.142Z,6.48
2019-02-11T10:33:55.397Z,6.56
2019-02-11T10:36:23.686Z,6.59
2019-02-11T10:38:51.951Z,6.65
2019-02-11T10:41:20.245Z,6.64
2019-02-11T10:43:48.512Z,6.55
2019-02-11T10:46:20.954Z,6.47
2019-02-11T10:48:46.802Z,6.54
2019-02-11T10:51:15.429Z,6.61
2019-02-11T10:53:43.756Z,6.58
2019-02-11T10:56:12.552Z,6.43
2019-02-11T10:58:40.833Z,6.39
2019-02-11T11:01:09.097Z,6.42
2019-02-11T11:03:37.352Z,6.57
2019-02-11T11:06:05.653Z,6.68
2019-02-11T11:08:33.983Z,6.85
2019-02-11T11:11:02.257Z,6.96
2019-02-11T11:13:30.537Z,7.07
2019-02-11T11:15:58.805Z,7.31
2019-02-11T11:18:27.089Z,7.49
2019-02-11T11:20:55.351Z,7.56
2019-02-11T11:23:23.637Z,7.97
2019-02-11T11:25:51.894Z,8.37
2019-02-11T11:28:20.192Z,8.55
2019-02-11T11:30:48.447Z,8.57
2019-02-11T11:33:16.704Z,8.41
2019-02-11T11:35:45.001Z,8.22
2019-02-11T11:38:13.299Z,8.15
2019-02-11T11:40:41.634Z,8.04
2019-02-11T11:43:09.923Z,7.94
2019-02-11T11:45:38.217Z,7.93
2019-02-11T11:48:06.474Z,8.01
2019-02-11T11:50:34.750Z,8.09
2019-02-11T11:53:03.029Z,8.12
2019-02-11T11:55:31.291Z,8.07
2019-02-11T11:57:59.578Z,8.02
2019-02-11T12:00:30.044Z,7.98
2019-02-11T12:03:02.738Z,7.89
2019-02-11T12:05:28.369Z,7.70
2019-02-11T12:07:56.614Z,7.48
2019-02-11T12:10:24.946Z,7.38
2019-02-11T12:12:53.240Z,7.18
2019-02-11T12:15:23.460Z,7.07
2019-02-11T12:17:51.808Z,7.01
2019-02-11T12:20:20.065Z,6.96
2019-02-11T12:22:48.402Z,6.87
2019-02-11T12:25:17.913Z,6.62
2019-02-11T12:27:46.171Z,6.47
2019-02-11T12:30:19.794Z,6.35
2019-02-11T12:32:48.055Z,6.27
2019-02-11T12:35:16.338Z,6.26
2019-02-11T12:37:44.596Z,6.21
2019-02-11T12:40:12.961Z,6.26
2019-02-11T12:42:41.217Z,6.21
2019-02-11T12:45:18.111Z,6.03
2019-02-11T12:47:46.415Z,5.89
2019-02-11T12:50:18.544Z,5.81
2019-02-11T12:52:46.790Z,5.68
2019-02-11T12:55:16.280Z,5.56
2019-02-11T12:57:44.638Z,5.42
2019-02-11T13:00:20.935Z,5.35
2019-02-11T13:02:49.192Z,5.25
2019-02-11T13:05:22.127Z,5.14
2019-02-11T13:07:47.530Z,5.21
2019-02-11T13:10:18.487Z,5.22
2019-02-11T13:12:46.752Z,5.22
2019-02-11T13:15:41.504Z,5.15
2019-02-11T13:17:46.194Z,5.16
2019-02-11T13:20:16.833Z,5.08
2019-02-11T13:22:45.139Z,5.03
2019-02-11T13:25:15.814Z,4.95
2019-02-11T13:27:44.121Z,4.86
2019-02-11T13:30:18.418Z,4.78
2019-02-11T13:32:46.666Z,4.76
2019-02-11T13:35:14.934Z,4.74
2019-02-11T13:37:43.200Z,4.73
2019-02-11T13:40:11.519Z,4.69
2019-02-11T13:42:39.872Z,4.57
2019-02-11T13:45:11.418Z,4.57
2019-02-11T13:47:52.230Z,4.52
2019-02-11T13:50:12.293Z,4.46
2019-02-11T13:52:40.553Z,4.41
2019-02-11T13:55:09.117Z,4.37
2019-02-11T13:57:37.436Z,4.35
2019-02-11T14:00:15.829Z,4.33
2019-02-11T14:02:52.630Z,4.42
2019-02-11T14:05:20.894Z,4.38
2019-02-11T14:07:49.211Z,4.36
2019-02-11T14:10:17.488Z,4.37
2019-02-11T14:12:46.098Z,4.30
2019-02-11T14:15:16.555Z,4.25
2019-02-11T14:17:44.380Z,4.21
2019-02-11T14:20:15.911Z,4.17
2019-02-11T14:22:44.161Z,4.19
2019-02-11T14:25:12.418Z,4.11
2019-02-11T14:27:40.699Z,4.11
2019-02-11T14:30:15.435Z,4.02
2019-02-11T14:32:43.702Z,4.06
2019-02-11T14:35:11.950Z,4.07
2019-02-11T14:37:40.252Z,4.04
2019-02-11T14:40:10.242Z,4.00
2019-02-11T14:42:38.539Z,4.02
2019-02-11T14:45:17.766Z,4.01
2019-02-11T14:47:46.138Z,4.01
2019-02-11T14:50:14.337Z,3.83
2019-02-11T14:52:42.586Z,3.80
2019-02-11T14:55:11.287Z,3.78
2019-02-11T14:57:39.566Z,3.67
2019-02-11T15:00:18.079Z,3.60
2019-02-11T15:02:46.410Z,3.58
2019-02-11T15:05:14.760Z,3.55
2019-02-11T15:07:43.051Z,3.53
2019-02-11T15:10:12.558Z,3.54
2019-02-11T15:12:40.840Z,3.46
2019-02-11T15:15:10.626Z,3.49
2019-02-11T15:17:40.326Z,3.50
2019-02-11T15:20:10.617Z,3.50
2019-02-11T15:22:38.914Z,3.47
2019-02-11T15:25:10.111Z,3.50
2019-02-11T15:27:38.370Z,3.52
2019-02-11T15:30:12.136Z,3.51
2019-02-11T15:32:40.464Z,3.53
2019-02-11T15:35:09.223Z,3.53
2019-02-11T15:37:37.475Z,3.46
2019-02-11T15:40:08.958Z,3.42
2019-02-11T15:42:37.204Z,3.40
2019-02-11T15:45:08.796Z,3.36
2019-02-11T15:47:37.076Z,3.35
2019-02-11T15:50:08.546Z,3.35
2019-02-11T15:52:36.795Z,3.32
2019-02-11T15:55:08.188Z,3.32
2019-02-11T15:57:36.443Z,3.34
2019-02-11T16:00:07.979Z,3.34
2019-02-11T16:02:36.238Z,3.32
2019-02-11T16:05:06.836Z,3.31
2019-02-11T16:07:35.161Z,3.31
2019-02-11T16:10:03.985Z,3.28
2019-02-11T16:12:32.273Z,3.26
2019-02-11T16:15:00.530Z,3.19
2019-02-11T16:17:28.790Z,3.17
2019-02-11T16:19:57.044Z,3.19
2019-02-11T16:22:25.337Z,3.08
2019-02-11T16:24:53.588Z,3.09
2019-02-11T16:27:21.873Z,3.14
2019-02-11T16:29:50.193Z,3.14
2019-02-11T16:32:18.510Z,3.11
2019-02-11T16:34:46.767Z,3.08
2019-02-11T16:37:15.031Z,3.05
2019-02-11T16:39:43.326Z,3.08
2019-02-11T16:42:11.613Z,3.08
2019-02-11T16:44:39.896Z,3.09
2019-02-11T16:47:08.159Z,3.10
2019-02-11T16:49:36.438Z,3.09
2019-02-11T16:52:04.693Z,3.10
2019-02-11T16:54:32.981Z,3.08
2019-02-11T16:57:01.249Z,3.05
2019-02-11T16:59:29.544Z,3.08
2019-02-11T17:01:57.810Z,3.08
2019-02-11T17:04:26.126Z,3.13
2019-02-11T17:06:54.383Z,3.12
2019-02-11T17:09:22.640Z,3.14
2019-02-11T17:11:50.933Z,3.16
2019-02-11T17:14:19.185Z,3.18
2019-02-11T17:16:47.476Z,3.17
2019-02-11T17:19:15.735Z,3.16
2019-02-11T17:21:44.009Z,3.16
2019-02-11T17:24:12.307Z,3.18
2019-02-11T17:26:40.561Z,3.16
2019-02-11T17:29:08.861Z,3.19
2019-02-11T17:31:37.117Z,3.18
2019-02-11T17:34:05.385Z,3.17
2019-02-11T17:36:33.651Z,3.17
2019-02-11T17:39:01.940Z,3.14
2019-02-11T17:41:30.206Z,3.16
2019-02-11T17:43:58.493Z,3.16
2019-02-11T17:46:26.747Z,3.14
2019-02-11T17:48:55.045Z,3.11
2019-02-11T17:51:23.291Z,3.08
2019-02-11T17:53:51.552Z,3.08
2019-02-11T17:56:19.930Z,3.10
2019-02-11T17:58:48.186Z,3.11
2019-02-11T18:01:16.532Z,3.13
2019-02-11T18:03:44.785Z,3.14
2019-02-11T18:06:13.079Z,3.10
2019-02-11T18:08:41.359Z,3.09
2019-02-11T18:11:09.617Z,3.10
2019-02-11T18:13:37.905Z,3.11
2019-02-11T18:16:06.161Z,3.12
2019-02-11T18:18:34.444Z,3.16
2019-02-11T18:21:02.795Z,3.11
2019-02-11T18:23:31.242Z,3.15
2019-02-11T18:25:59.497Z,3.19
2019-02-11T18:28:27.800Z,3.24
2019-02-11T18:30:56.050Z,3.24
2019-02-11T18:33:24.352Z,3.26
2019-02-11T18:35:52.644Z,3.24
2019-02-11T18:38:20.897Z,3.23
2019-02-11T18:40:49.175Z,3.24
2019-02-11T18:43:17.436Z,3.27
2019-02-11T18:45:45.956Z,3.28
2019-02-11T18:48:14.262Z,3.31
2019-02-11T18:50:42.518Z,3.32
2019-02-11T18:53:10.814Z,3.31
2019-02-11T18:55:39.111Z,3.30
2019-02-11T18:58:07.412Z,3.28
2019-02-11T19:00:36.183Z,3.28
2019-02-11T19:03:04.514Z,3.31
2019-02-11T19:05:32.808Z,3.26
2019-02-11T19:08:01.077Z,3.20
2019-02-11T19:10:29.437Z,3.20
2019-02-11T19:12:57.691Z,3.13
2019-02-11T19:15:26.120Z,3.08
2019-02-11T19:17:54.401Z,3.04
2019-02-11T19:20:22.657Z,2.97
2019-02-11T19:22:50.949Z,2.92
2019-02-11T19:25:19.237Z,2.86
2019-02-11T19:27:47.599Z,2.81
2019-02-11T19:30:40.930Z,2.83
2019-02-11T19:33:09.155Z,2.73
2019-02-11T19:35:37.462Z,2.67
2019-02-11T19:38:05.721Z,2.62
2019-02-11T19:40:33.978Z,2.64
2019-02-11T19:43:02.260Z,2.63
2019-02-11T19:45:30.512Z,2.62
2019-02-11T19:47:58.778Z,2.67
2019-02-11T19:50:27.025Z,2.63
2019-02-11T19:52:55.313Z,2.66
2019-02-11T19:55:23.600Z,2.63
2019-02-11T19:57:51.853Z,2.63
2019-02-11T20:00:21.205Z,2.64
2019-02-11T20:02:50.401Z,2.58
2019-02-11T20:05:18.665Z,2.57
2019-02-11T20:07:47.010Z,2.59
2019-02-11T20:10:21.415Z,2.57
2019-02-11T20:12:49.702Z,2.58
2019-02-11T20:15:25.885Z,2.59
2019-02-11T20:17:54.199Z,2.59
2019-02-11T20:20:22.921Z,2.53
2019-02-11T20:22:51.190Z,2.55
2019-02-11T20:25:19.440Z,2.56
2019-02-11T20:27:47.726Z,2.58
2019-02-11T20:30:18.844Z,2.58
2019-02-11T20:32:47.108Z,2.58
2019-02-11T20:35:15.438Z,2.50
2019-02-11T20:37:43.715Z,2.49
2019-02-11T20:40:18.212Z,2.49
2019-02-11T20:42:46.550Z,2.48
2019-02-11T20:45:17.672Z,2.55
2019-02-11T20:47:45.922Z,2.58
2019-02-11T20:50:14.203Z,2.54
2019-02-11T20:52:42.458Z,2.57
2019-02-11T20:55:13.081Z,2.55
2019-02-11T20:57:41.837Z,2.58
2019-02-11T21:00:16.695Z,2.55
2019-02-11T21:02:45.025Z,2.51
2019-02-11T21:05:13.394Z,2.49
2019-02-11T21:07:41.651Z,2.48
2019-02-11T21:10:12.643Z,2.53
2019-02-11T21:12:40.969Z,2.53
2019-02-11T21:15:11.781Z,2.55
2019-02-11T21:17:40.042Z,2.51
2019-02-11T21:20:17.682Z,2.55
2019-02-11T21:22:44.279Z,2.57
2019-02-11T21:25:12.568Z,2.60
2019-02-11T21:27:40.841Z,2.60
2019-02-11T21:30:13.535Z,2.59
2019-02-11T21:32:41.789Z,2.56
2019-02-11T21:35:11.383Z,2.57
2019-02-11T21:37:40.058Z,2.59
2019-02-11T21:40:08.744Z,2.60
2019-02-11T21:42:37.091Z,2.62
2019-02-11T21:45:10.938Z,2.59
2019-02-11T21:47:39.225Z,2.59
2019-02-11T21:50:16.057Z,2.61
2019-02-11T21:52:44.358Z,2.65
2019-02-11T21:55:14.759Z,2.63
2019-02-11T21:57:43.037Z,2.65
2019-02-11T22:00:14.520Z,2.65
2019-02-11T22:02:42.777Z,2.65
2019-02-11T22:05:11.031Z,2.67
2019-02-11T22:07:39.311Z,2.67
2019-02-11T22:10:10.796Z,2.68
2019-02-11T22:12:39.148Z,2.63
2019-02-11T22:15:08.882Z,2.63
2019-02-11T22:17:37.157Z,2.61
2019-02-11T22:20:11.167Z,2.62
2019-02-11T22:22:39.466Z,2.64
2019-02-11T22:25:09.759Z,2.62
2019-02-11T22:27:38.019Z,2.53
2019-02-11T22:30:09.533Z,2.53
2019-02-11T22:32:37.834Z,2.50
2019-02-11T22:35:08.836Z,2.47
2019-02-11T22:37:37.115Z,2.48
2019-02-11T22:40:07.972Z,2.41
2019-02-11T22:42:36.266Z,2.43
2019-02-11T22:45:06.746Z,2.39
2019-02-11T22:47:35.064Z,2.40
2019-02-11T22:50:04.899Z,2.41
2019-02-11T22:52:33.154Z,2.43
2019-02-11T22:55:01.450Z,2.44
2019-02-11T22:57:29.755Z,2.43
2019-02-11T22:59:58.028Z,2.30
2019-02-11T23:02:26.350Z,2.32
2019-02-11T23:04:56.012Z,2.33
2019-02-11T23:07:24.373Z,2.28
2019-02-11T23:09:52.673Z,2.28
2019-02-11T23:12:20.961Z,2.25
2019-02-11T23:14:49.266Z,2.23
2019-02-11T23:17:17.549Z,2.17
2019-02-11T23:19:45.810Z,2.14
2019-02-11T23:22:14.095Z,2.15
2019-02-11T23:24:42.351Z,2.17
2019-02-11T23:27:10.706Z,2.12
2019-02-11T23:29:38.991Z,2.10
2019-02-11T23:32:07.241Z,2.12
2019-02-11T23:34:35.514Z,2.11
2019-02-11T23:37:03.786Z,2.11
2019-02-11T23:39:32.047Z,2.11
2019-02-11T23:42:03.215Z,2.07
2019-02-11T23:44:32.817Z,2.06
2019-02-11T23:47:01.100Z,2.08
2019-02-11T23:49:29.352Z,2.08
2019-02-11T23:51:57.630Z,2.11
2019-02-11T23:54:25.879Z,2.09
2019-02-11T23:56:54.326Z,2.05
2019-02-11T23:59:22.584Z,1.99
